WAPP/AMQ METAR and TAF weather

Enter ICAO airport designator
Station Type Date Time Source
WAPP METAR 2021/05/17 21:30 UTC NOAA

WAPP 172130Z 16005KT 120V200 9000 SCT018 28/25 Q1008 NOSIG


Station Type Date Time Source
WAPP Decoded METAR 2021/05/17 21:30 UTC NOAA

Ambon / Pattimura, Indonesia (WAPP) 03-42S 128-05E 12M
May 17, 2021 - 05:30 PM EDT / 2021.05.17 2130 UTC
Wind: from the SSE (160 degrees) at 6 MPH (5 KT) (direction variable):0
Visibility: 5 mile(s):0
Sky conditions: partly cloudy
Temperature: 82 F (28 C)
Dew Point: 77 F (25 C)
Relative Humidity: 83%
Pressure (altimeter): 29.77 in. Hg (1008 hPa)
ob: WAPP 172130Z 16005KT 120V200 9000 SCT018 28/25 Q1008 NOSIG
cycle: 21

Station Type Date Time Source
WAPP TAF 2015/06/30 00:57 UTC NOAA

TAF WAPP 302300Z 0100/0124 34006KT 9999 SCT018
TEMPO 0101/0104 7000 -RA BKN017
BECMG 0105/0107 21006KT
BECMG 0109/0111 32006KT

Example: see airport list